If you wish to contribute or participate in the discussions about articles you are invited to join SKYbrary as a registered user

Tarbes-Lourdes-Pyrénées Airport

From SKYbrary Wiki
LFBT
Airport
ICAO: LFBT – IATA: LDE
Summary
Name Tarbes-Lourdes-Pyrénées Airport
Region Europe
Territory France FR.gif
Location Ossun, Midi-Pyrenees
Serving Tarbes
Elevation 383.743 m
1,259 ft
1,259 ft383.743 m
Coordinates 43° 10' 56.7821", -0° 0' 14.6255"
Runways
Designator Length Width Surface ROPS
2/20 3000 m9,842.52 ft 45 m147.638 ft ASP yes/yes
METAR
Observation LFBT 241430Z AUTO VRB03KT CAVOK 28/12 Q1018 NOSIG
Station Tarbes Ossun Lourdes
Date/Time 24 September 2017 14:30:00
Wind direction °
Wind speed 03 kts
Lowest cloud amount clouds and visibility OK
Temperature 28°C
Dew point 12°C
Humidity 37%
QNH 1018 hPa
Weather condition n/a

WX
Tag(s) Fog
Low Level Turbulence

Tarbes Airport

ICAO: LFBT IATA: LDE

Description

International airport serving Tarbes.

Climatology

Temperate Marine climate/Oceanic climate (Köppen climate classification Cfb). Moderately cool summer and comparatively warm winter. Prevailing south-westerly winds from the Atlantic Ocean.

Maps

Terrain

Loading map...

Airport Layout

Loading map...


Accidents & Serious Incidents at or in vicinity of LFBT

None on SKYbrary